Time;durP1;ratioP1;P1;durP2;ratioP2;P2;SDS_P1;SDS_P2;PMS_P1;PMS_P2;Temp;Humidity;BMP_temperature;BMP_pressure;BME280_temperature;BME280_humidity;BME280_pressure;Samples;Min_cycle;Max_cycle;Signal;HPM_P1;HPM_P2
2024/01/22 00:01:46;;;;;;;2.85;0.90;;;9.60;69.90;;;;;;2265347;55;20963;-66
2024/01/22 00:04:14;;;;;;;2.53;0.75;;;9.60;69.80;;;;;;2264189;55;21782;-66
2024/01/22 00:06:41;;;;;;;1.70;0.80;;;9.60;69.70;;;;;;2264619;55;21054;-67
2024/01/22 00:09:07;;;;;;;3.03;0.90;;;9.60;69.70;;;;;;2264646;55;21038;-66
2024/01/22 00:11:35;;;;;;;3.30;0.77;;;9.60;69.70;;;;;;2265078;55;20966;-66
2024/01/22 00:14:02;;;;;;;1.77;0.70;;;9.60;69.60;;;;;;2265224;55;20934;-65
2024/01/22 00:16:28;;;;;;;2.05;0.90;;;9.60;69.70;;;;;;2260850;55;21875;-67
2024/01/22 00:18:54;;;;;;;1.65;0.70;;;9.60;69.90;;;;;;2259782;55;20978;-65
2024/01/22 00:21:21;;;;;;;3.37;1.00;;;9.60;70.10;;;;;;2264669;55;20998;-66
2024/01/22 00:23:47;;;;;;;4.15;0.90;;;9.60;70.10;;;;;;2493487;54;20959;-66
2024/01/22 00:26:14;;;;;;;1.98;0.70;;;9.60;70.20;;;;;;2493468;54;21049;-65
2024/01/22 00:28:41;;;;;;;2.05;0.70;;;9.60;70.30;;;;;;2265123;55;21026;-66
2024/01/22 00:31:08;;;;;;;2.72;0.62;;;9.60;70.50;;;;;;2264847;55;20986;-66
2024/01/22 00:33:35;;;;;;;2.22;0.70;;;9.60;70.80;;;;;;2264925;55;20981;-65
2024/01/22 00:36:02;;;;;;;1.77;0.75;;;9.70;71.10;;;;;;2494936;54;20967;-66
2024/01/22 00:38:31;;;;;;;1.17;0.55;;;9.70;71.30;;;;;;2494337;54;20959;-66
2024/01/22 00:40:57;;;;;;;1.92;0.60;;;9.70;71.50;;;;;;2264670;55;20995;-66
2024/01/22 00:43:24;;;;;;;2.55;0.75;;;9.80;71.70;;;;;;2235896;57;20971;-66
2024/01/22 00:45:51;;;;;;;2.70;1.08;;;9.80;71.70;;;;;;2267654;55;20991;-66
2024/01/22 00:48:17;;;;;;;2.72;1.08;;;9.80;71.70;;;;;;2256662;56;21203;-66
2024/01/22 00:50:44;;;;;;;2.42;1.12;;;9.90;71.70;;;;;;2262762;55;20972;-66
2024/01/22 00:53:11;;;;;;;2.65;1.23;;;9.90;71.50;;;;;;2261131;55;21014;-66
2024/01/22 00:55:37;;;;;;;4.55;1.17;;;9.90;71.50;;;;;;2491386;54;21028;-67
2024/01/22 00:58:05;;;;;;;3.28;0.90;;;9.90;71.40;;;;;;2257619;55;20995;-66
2024/01/22 01:00:31;;;;;;;3.03;1.20;;;9.90;71.30;;;;;;2264517;55;20995;-67
2024/01/22 01:02:57;;;;;;;2.83;1.15;;;9.90;71.20;;;;;;2494997;54;21860;-67
2024/01/22 01:05:25;;;;;;;2.78;0.75;;;10.00;70.20;;;;;;2493914;54;21027;-67
2024/01/22 01:07:52;;;;;;;2.30;0.98;;;10.00;70.30;;;;;;2257121;56;20923;-66
2024/01/22 01:10:18;;;;;;;2.85;1.08;;;10.00;70.30;;;;;;2494301;54;21018;-66
2024/01/22 01:12:47;;;;;;;3.67;1.58;;;9.90;71.30;;;;;;2261105;55;21785;-67
2024/01/22 01:15:14;;;;;;;3.70;1.10;;;10.00;70.40;;;;;;2263520;55;20962;-66
2024/01/22 01:17:40;;;;;;;2.75;1.05;;;10.00;70.50;;;;;;2264445;55;20991;-66
2024/01/22 01:20:08;;;;;;;3.15;1.17;;;10.00;70.30;;;;;;2263498;55;20934;-66
2024/01/22 01:22:34;;;;;;;3.35;1.00;;;10.00;70.00;;;;;;2494832;54;21547;-65
2024/01/22 01:25:00;;;;;;;2.60;1.10;;;10.00;70.40;;;;;;2494555;54;20963;-66
2024/01/22 01:27:26;;;;;;;3.80;1.30;;;9.90;70.20;;;;;;2264860;55;21038;-66
2024/01/22 01:29:53;;;;;;;4.45;1.48;;;9.90;69.90;;;;;;2493684;54;21433;-66
2024/01/22 01:32:19;;;;;;;3.72;1.65;;;9.90;69.50;;;;;;2490009;54;21303;-66
2024/01/22 01:34:45;;;;;;;3.58;1.60;;;9.80;69.00;;;;;;2481977;54;21810;-66
2024/01/22 01:37:12;;;;;;;3.10;1.40;;;9.70;68.60;;;;;;2485522;54;20975;-66
2024/01/22 01:39:40;;;;;;;3.60;1.62;;;9.70;68.50;;;;;;2259683;55;20936;-66
2024/01/22 01:42:07;;;;;;;3.80;1.67;;;9.60;68.20;;;;;;2491760;54;21002;-66
2024/01/22 01:44:49;;;;;;;3.67;1.70;;;9.50;68.20;;;;;;2264439;55;20933;-66
2024/01/22 01:47:15;;;;;;;4.90;1.83;;;9.50;67.80;;;;;;2262890;55;21001;-66
2024/01/22 01:49:42;;;;;;;4.07;1.80;;;9.40;68.20;;;;;;2488759;54;20946;-66
2024/01/22 01:52:09;;;;;;;3.70;2.08;;;9.30;68.00;;;;;;2265437;55;20983;-65
2024/01/22 01:54:36;;;;;;;3.78;1.60;;;9.20;68.00;;;;;;2494318;54;20962;-66
2024/01/22 01:57:03;;;;;;;3.67;1.62;;;9.20;68.10;;;;;;2265032;55;21488;-66
2024/01/22 01:59:29;;;;;;;4.53;1.77;;;9.10;68.00;;;;;;2264425;55;20982;-66
2024/01/22 02:01:55;;;;;;;2.75;1.30;;;9.00;68.00;;;;;;2265032;55;21836;-66
2024/01/22 02:04:23;;;;;;;3.12;1.23;;;9.00;68.00;;;;;;2493749;54;20950;-66
2024/01/22 02:06:49;;;;;;;3.87;1.60;;;8.90;68.00;;;;;;2265320;55;21006;-66
2024/01/22 02:09:16;;;;;;;4.35;1.77;;;8.80;67.90;;;;;;2494453;54;20934;-65
2024/01/22 02:11:43;;;;;;;2.60;1.30;;;8.80;68.00;;;;;;2264164;55;20990;-66
2024/01/22 02:14:09;;;;;;;2.92;1.30;;;8.70;67.90;;;;;;2493525;54;21838;-65
2024/01/22 02:16:36;;;;;;;2.50;1.08;;;8.60;67.90;;;;;;2494278;54;20994;-65
2024/01/22 02:19:02;;;;;;;4.35;1.50;;;8.60;67.90;;;;;;2265211;55;20950;-66
2024/01/22 02:21:30;;;;;;;4.00;1.75;;;8.50;67.80;;;;;;2494389;54;21023;-67
2024/01/22 02:23:56;;;;;;;2.50;1.20;;;8.50;67.80;;;;;;2264800;55;21303;-67
2024/01/22 02:26:22;;;;;;;2.97;1.05;;;8.40;67.80;;;;;;2264680;55;21006;-66
2024/01/22 02:28:49;;;;;;;2.22;0.95;;;8.40;67.80;;;;;;2265030;55;20954;-66
2024/01/22 02:31:16;;;;;;;2.97;1.20;;;8.30;67.70;;;;;;2263857;55;20943;-65
2024/01/22 02:33:42;;;;;;;3.17;1.20;;;8.20;67.40;;;;;;2264122;55;21053;-66
2024/01/22 02:36:10;;;;;;;4.07;1.48;;;8.10;67.30;;;;;;2260934;55;21039;-67
2024/01/22 02:38:39;;;;;;;2.92;1.25;;;8.10;67.30;;;;;;2490902;54;20926;-66
2024/01/22 02:41:05;;;;;;;4.35;1.30;;;8.00;67.20;;;;;;2494568;54;21798;-67
2024/01/22 02:43:34;;;;;;;2.90;1.20;;;7.90;67.30;;;;;;2264627;55;21175;-66
2024/01/22 02:46:01;;;;;;;3.33;1.30;;;7.80;67.30;;;;;;2265147;55;21010;-66
2024/01/22 02:48:29;;;;;;;4.47;1.83;;;7.80;67.30;;;;;;2264264;55;20956;-66
2024/01/22 02:50:55;;;;;;;3.92;1.75;;;7.70;67.10;;;;;;2265043;55;21451;-66
2024/01/22 02:53:21;;;;;;;4.68;2.45;;;7.60;67.00;;;;;;2264868;55;20962;-66
2024/01/22 02:55:50;;;;;;;4.03;2.08;;;7.60;67.10;;;;;;2264742;55;20951;-67
2024/01/22 02:58:17;;;;;;;3.80;1.83;;;7.50;67.00;;;;;;2264377;55;21010;-66
2024/01/22 03:00:43;;;;;;;3.55;1.90;;;7.40;67.10;;;;;;2494314;54;21496;-67
2024/01/22 03:03:09;;;;;;;3.85;2.10;;;7.40;67.30;;;;;;2264413;55;20943;-66
2024/01/22 03:05:35;;;;;;;3.97;1.95;;;7.30;67.40;;;;;;2264368;55;21011;-67
2024/01/22 03:08:02;;;;;;;5.43;2.22;;;7.20;67.40;;;;;;2265193;55;21376;-66
2024/01/22 03:10:28;;;;;;;5.28;1.95;;;7.20;67.50;;;;;;2264284;55;20966;-65
2024/01/22 03:12:55;;;;;;;5.87;2.30;;;7.10;67.50;;;;;;2264968;55;20946;-66
2024/01/22 03:15:22;;;;;;;4.15;1.98;;;7.10;67.70;;;;;;2494100;54;21010;-66
2024/01/22 03:17:48;;;;;;;3.92;1.70;;;7.00;67.80;;;;;;2494440;54;21587;-66
2024/01/22 03:20:14;;;;;;;3.50;1.40;;;7.00;67.90;;;;;;2264888;55;21794;-66
2024/01/22 03:22:41;;;;;;;2.03;0.95;;;7.00;68.30;;;;;;2264352;55;20959;-66
2024/01/22 03:25:12;;;;;;;2.37;0.85;;;6.90;69.20;;;;;;2494911;54;21077;-66
2024/01/22 03:27:38;;;;;;;3.25;0.90;;;7.00;70.10;;;;;;2265033;55;21767;-65
2024/01/22 03:30:05;;;;;;;2.65;0.70;;;7.10;71.00;;;;;;2493953;54;21010;-65
2024/01/22 03:32:31;;;;;;;2.20;0.90;;;7.20;72.00;;;;;;2258432;55;20969;-66
2024/01/22 03:34:57;;;;;;;2.25;0.88;;;7.30;72.70;;;;;;2258153;56;20964;-67
2024/01/22 03:37:24;;;;;;;1.62;0.70;;;7.40;73.30;;;;;;2263934;55;20954;-67
2024/01/22 03:39:50;;;;;;;2.03;0.62;;;7.60;74.00;;;;;;2264793;55;21491;-66
2024/01/22 03:42:17;;;;;;;4.32;0.80;;;7.70;74.30;;;;;;2267737;55;21090;-66
2024/01/22 03:44:44;;;;;;;1.98;0.73;;;7.90;74.80;;;;;;2480802;54;20974;-66
2024/01/22 03:47:10;;;;;;;2.03;0.73;;;8.10;75.20;;;;;;2264886;55;21005;-65
2024/01/22 03:49:36;;;;;;;1.48;0.70;;;8.30;75.70;;;;;;2263704;55;20905;-66
2024/01/22 03:52:03;;;;;;;2.00;0.77;;;8.50;75.90;;;;;;2487303;54;20999;-67
2024/01/22 03:54:29;;;;;;;2.47;0.68;;;8.70;76.20;;;;;;2264943;55;20961;-67
2024/01/22 03:56:56;;;;;;;3.58;0.60;;;8.90;76.30;;;;;;2482996;54;21737;-66
2024/01/22 03:59:23;;;;;;;1.83;0.50;;;9.10;76.40;;;;;;2480808;54;20976;-68
2024/01/22 04:01:50;;;;;;;2.50;0.70;;;9.30;76.30;;;;;;2263762;55;20967;-67
2024/01/22 04:04:16;;;;;;;2.25;0.85;;;9.50;76.20;;;;;;2265186;55;21416;-66
2024/01/22 04:06:42;;;;;;;1.85;0.70;;;9.60;75.90;;;;;;2481363;54;20965;-67
2024/01/22 04:09:10;;;;;;;2.33;0.60;;;9.80;75.80;;;;;;2264505;55;20931;-66
2024/01/22 04:11:37;;;;;;;2.50;0.70;;;10.00;74.70;;;;;;2493741;54;22121;-67
2024/01/22 04:14:03;;;;;;;1.87;0.80;;;10.10;74.40;;;;;;2493524;54;21075;-67
2024/01/22 04:16:29;;;;;;;1.45;0.60;;;10.20;74.00;;;;;;2264157;55;20970;-66
2024/01/22 04:18:57;;;;;;;2.47;1.00;;;10.40;73.90;;;;;;2264348;55;20998;-67
2024/01/22 04:21:23;;;;;;;2.50;0.60;;;10.50;73.40;;;;;;2494108;54;21618;-67
2024/01/22 04:23:49;;;;;;;1.45;0.60;;;10.60;73.30;;;;;;2264900;55;21428;-67
2024/01/22 04:26:17;;;;;;;2.28;0.80;;;10.80;73.20;;;;;;2264816;55;20943;-66
2024/01/22 04:28:43;;;;;;;2.12;0.75;;;10.80;72.90;;;;;;2494113;54;21408;-67
2024/01/22 04:31:10;;;;;;;2.55;0.90;;;10.90;72.60;;;;;;2263975;55;21808;-67
2024/01/22 04:33:37;;;;;;;3.20;0.88;;;11.00;72.30;;;;;;2264697;55;20978;-66
2024/01/22 04:36:03;;;;;;;2.95;0.80;;;11.10;72.20;;;;;;2265294;55;20950;-65
2024/01/22 04:38:30;;;;;;;2.33;0.80;;;11.10;71.90;;;;;;2494035;54;20959;-67
2024/01/22 04:40:57;;;;;;;1.75;0.65;;;11.20;71.50;;;;;;2264202;55;20972;-68
2024/01/22 04:43:23;;;;;;;2.72;0.80;;;11.30;71.40;;;;;;2256991;55;20950;-65
2024/01/22 04:45:49;;;;;;;2.67;0.90;;;11.30;71.10;;;;;;2494159;54;20971;-67
2024/01/22 04:48:16;;;;;;;2.15;0.77;;;11.40;71.00;;;;;;2494378;54;21439;-66
2024/01/22 04:50:43;;;;;;;2.62;0.82;;;11.40;70.70;;;;;;2494515;54;21818;-68
2024/01/22 04:53:11;;;;;;;2.10;0.80;;;11.50;70.30;;;;;;2266206;55;21041;-67
2024/01/22 04:55:39;;;;;;;3.62;1.00;;;11.50;70.20;;;;;;2255881;55;21555;-67
2024/01/22 04:58:05;;;;;;;2.60;0.80;;;11.50;70.10;;;;;;2264289;55;20951;-67
2024/01/22 05:00:32;;;;;;;2.72;0.85;;;11.50;70.00;;;;;;2265353;55;20951;-66
2024/01/22 05:02:59;;;;;;;3.10;1.00;;;11.50;69.70;;;;;;2262920;55;21010;-68
2024/01/22 05:05:25;;;;;;;3.50;1.15;;;11.60;69.60;;;;;;2264357;55;21022;-67
2024/01/22 05:07:52;;;;;;;3.75;1.00;;;11.60;69.70;;;;;;2264219;55;20950;-66
2024/01/22 05:10:18;;;;;;;2.62;1.15;;;11.60;69.60;;;;;;2264514;55;21416;-66
2024/01/22 05:12:45;;;;;;;2.95;0.90;;;11.60;69.40;;;;;;2264248;55;21032;-66
2024/01/22 05:15:12;;;;;;;4.53;1.65;;;11.70;69.60;;;;;;2493594;54;21007;-66
2024/01/22 05:17:39;;;;;;;4.00;1.10;;;11.70;69.60;;;;;;2265098;55;21125;-66
2024/01/22 05:20:06;;;;;;;5.37;1.02;;;11.70;69.20;;;;;;2264400;55;21070;-66
2024/01/22 05:22:33;;;;;;;2.75;0.95;;;11.70;69.30;;;;;;2494761;54;20998;-66
2024/01/22 05:24:59;;;;;;;3.05;0.95;;;11.70;69.20;;;;;;2263208;55;21052;-67
2024/01/22 05:27:25;;;;;;;2.78;1.20;;;11.70;69.30;;;;;;2255973;55;21034;-66
2024/01/22 05:29:53;;;;;;;3.45;0.90;;;11.70;69.20;;;;;;2265145;55;20971;-67
2024/01/22 05:32:19;;;;;;;2.20;0.75;;;11.80;69.20;;;;;;2264909;55;21907;-65
2024/01/22 05:34:45;;;;;;;2.50;0.90;;;11.80;69.20;;;;;;2264680;55;20942;-66
2024/01/22 05:37:15;;;;;;;2.95;1.00;;;11.80;69.10;;;;;;2257101;56;21046;-66
2024/01/22 05:39:41;;;;;;;3.87;0.95;;;11.80;69.20;;;;;;2494449;54;21523;-65
2024/01/22 05:42:08;;;;;;;2.62;1.00;;;11.80;69.00;;;;;;2264947;55;20951;-66
2024/01/22 05:44:34;;;;;;;4.07;1.23;;;11.80;69.10;;;;;;2265802;55;20966;-65
2024/01/22 05:47:00;;;;;;;3.05;0.90;;;11.90;70.00;;;;;;2494624;54;21038;-66
2024/01/22 05:49:28;;;;;;;5.72;1.52;;;11.90;69.40;;;;;;2264737;55;20966;-67
2024/01/22 05:51:56;;;;;;;4.72;1.10;;;11.90;69.50;;;;;;2493840;54;20955;-66
2024/01/22 05:54:23;;;;;;;5.03;0.90;;;11.90;69.30;;;;;;2263821;55;21010;-66
2024/01/22 05:56:51;;;;;;;2.65;1.00;;;12.00;69.50;;;;;;2263896;55;20990;-66
2024/01/22 05:59:19;;;;;;;2.50;0.80;;;12.00;69.60;;;;;;2265723;55;21014;-66
2024/01/22 06:01:45;;;;;;;4.50;1.00;;;12.00;69.50;;;;;;2494111;54;20974;-67
2024/01/22 06:04:12;;;;;;;2.78;1.00;;;12.00;69.60;;;;;;2493269;54;21255;-66
2024/01/22 06:06:38;;;;;;;3.25;1.12;;;11.90;69.20;;;;;;2258949;55;20980;-67
2024/01/22 06:09:06;;;;;;;3.25;1.10;;;12.10;68.00;;;;;;2264057;55;20947;-66
2024/01/22 06:11:32;;;;;;;3.70;1.00;;;12.10;68.50;;;;;;2493151;54;21416;-66
2024/01/22 06:13:58;;;;;;;3.40;0.90;;;12.20;68.80;;;;;;2492769;54;20950;-66
2024/01/22 06:16:26;;;;;;;5.37;1.20;;;12.20;68.80;;;;;;2264669;55;20970;-67
2024/01/22 06:18:52;;;;;;;2.70;0.93;;;12.20;68.60;;;;;;2264779;55;20975;-67
2024/01/22 06:21:19;;;;;;;3.78;1.10;;;12.20;68.60;;;;;;2265047;55;20991;-68
2024/01/22 06:23:46;;;;;;;3.60;0.90;;;12.20;68.70;;;;;;2260903;55;20976;-68
2024/01/22 06:26:12;;;;;;;3.53;1.20;;;12.30;68.30;;;;;;2260963;55;21511;-67
2024/01/22 06:28:39;;;;;;;4.25;1.45;;;12.30;68.40;;;;;;2264686;55;20963;-67
2024/01/22 06:31:05;;;;;;;2.67;1.02;;;12.30;68.30;;;;;;2264581;55;20954;-67
2024/01/22 06:33:31;;;;;;;2.40;1.02;;;12.30;68.30;;;;;;2264981;55;20966;-66
2024/01/22 06:35:58;;;;;;;3.17;1.10;;;12.30;68.40;;;;;;2263698;55;21034;-67
2024/01/22 06:38:25;;;;;;;2.50;0.93;;;12.30;68.40;;;;;;2264327;55;21014;-67
2024/01/22 06:40:51;;;;;;;3.08;1.10;;;12.30;68.30;;;;;;2493579;54;21318;-68
2024/01/22 06:43:19;;;;;;;3.87;1.00;;;12.30;68.30;;;;;;2263541;55;20990;-67
2024/01/22 06:45:45;;;;;;;2.90;1.00;;;12.40;68.60;;;;;;2265189;55;21567;-67
2024/01/22 06:48:12;;;;;;;3.83;1.10;;;12.30;68.50;;;;;;2264095;55;21004;-67
2024/01/22 06:50:39;;;;;;;2.80;0.98;;;12.40;68.80;;;;;;2265137;55;20958;-65
2024/01/22 06:53:05;;;;;;;2.92;0.90;;;12.40;68.80;;;;;;2493827;54;21512;-67
2024/01/22 06:55:31;;;;;;;2.40;0.90;;;12.40;68.90;;;;;;2267258;55;20969;-67
2024/01/22 06:57:58;;;;;;;2.80;1.12;;;12.40;69.00;;;;;;2264894;55;20967;-66
2024/01/22 07:00:24;;;;;;;2.87;0.90;;;12.40;69.00;;;;;;2263614;55;20942;-67
2024/01/22 07:02:51;;;;;;;4.05;1.00;;;12.40;69.00;;;;;;2264828;55;20994;-67
2024/01/22 07:05:18;;;;;;;3.03;1.15;;;12.40;69.20;;;;;;2264133;55;20931;-67
2024/01/22 07:07:44;;;;;;;3.55;1.10;;;12.50;69.40;;;;;;2265468;55;20958;-67
2024/01/22 07:10:10;;;;;;;2.92;0.88;;;12.50;69.30;;;;;;2264376;55;22119;-67
2024/01/22 07:12:37;;;;;;;3.40;1.23;;;12.50;69.20;;;;;;2265636;55;20959;-66
2024/01/22 07:15:05;;;;;;;3.30;1.10;;;12.50;69.00;;;;;;2264715;55;20946;-66
2024/01/22 07:17:31;;;;;;;2.65;0.93;;;12.50;69.00;;;;;;2495077;54;20953;-66
2024/01/22 07:19:58;;;;;;;2.75;0.90;;;12.60;69.40;;;;;;2480769;55;20982;-67
2024/01/22 07:22:24;;;;;;;3.60;1.10;;;12.60;69.40;;;;;;2264913;55;20954;-67
2024/01/22 07:24:51;;;;;;;2.55;1.00;;;12.60;69.50;;;;;;2265804;55;20923;-68
2024/01/22 07:27:18;;;;;;;2.60;0.88;;;12.60;69.60;;;;;;2263780;55;21467;-67
2024/01/22 07:29:45;;;;;;;4.40;1.20;;;12.60;69.30;;;;;;2484072;54;20932;-66
2024/01/22 07:32:12;;;;;;;2.58;0.98;;;12.70;69.50;;;;;;2491054;54;21179;-66
2024/01/22 07:34:40;;;;;;;2.97;1.10;;;12.70;69.60;;;;;;2264744;55;20973;-66
2024/01/22 07:37:06;;;;;;;3.03;0.93;;;12.70;69.70;;;;;;2266008;55;21006;-67
2024/01/22 07:39:33;;;;;;;3.60;1.15;;;12.70;69.70;;;;;;2493875;54;20946;-68
2024/01/22 07:41:59;;;;;;;3.12;0.98;;;12.70;69.60;;;;;;2493416;54;20986;-67
2024/01/22 07:44:25;;;;;;;3.65;0.90;;;12.80;69.80;;;;;;2263424;55;20935;-67
2024/01/22 07:46:52;;;;;;;1.98;0.70;;;12.80;69.60;;;;;;2265184;55;21054;-68
2024/01/22 07:49:18;;;;;;;3.12;1.00;;;12.80;69.60;;;;;;2494010;54;21479;-67
2024/01/22 07:51:44;;;;;;;3.03;1.10;;;12.80;69.70;;;;;;2265477;55;21432;-67
2024/01/22 07:54:11;;;;;;;2.87;1.05;;;12.80;69.60;;;;;;2263933;55;20992;-67
2024/01/22 07:56:37;;;;;;;2.65;0.98;;;12.80;69.30;;;;;;2494853;54;21507;-69
2024/01/22 07:59:03;;;;;;;2.67;0.88;;;12.80;69.70;;;;;;2264442;55;21399;-67
2024/01/22 08:01:32;;;;;;;2.45;0.95;;;12.80;69.70;;;;;;2494169;54;20951;-67
2024/01/22 08:04:02;;;;;;;3.12;0.85;;;12.80;69.70;;;;;;2263705;55;21007;-66
2024/01/22 08:06:30;;;;;;;3.85;0.93;;;12.90;70.00;;;;;;2493646;54;20930;-66
2024/01/22 08:08:58;;;;;;;3.10;1.05;;;12.90;70.10;;;;;;2263683;55;20956;-67
2024/01/22 08:11:24;;;;;;;4.22;1.10;;;12.90;69.80;;;;;;2264369;55;20975;-68
2024/01/22 08:13:50;;;;;;;2.85;1.30;;;12.90;69.80;;;;;;2263873;55;20963;-67
2024/01/22 08:16:16;;;;;;;3.67;1.45;;;12.90;69.80;;;;;;2262309;55;20987;-66
2024/01/22 08:18:45;;;;;;;3.20;1.00;;;13.00;69.90;;;;;;2264434;55;20974;-68
2024/01/22 08:21:11;;;;;;;3.15;1.12;;;12.90;69.90;;;;;;2264221;55;20931;-66
2024/01/22 08:23:37;;;;;;;2.90;1.37;;;13.00;70.00;;;;;;2264796;55;21050;-66
2024/01/22 08:26:05;;;;;;;3.55;0.90;;;13.00;70.00;;;;;;2494218;54;21445;-68
2024/01/22 08:28:32;;;;;;;3.78;1.12;;;13.00;69.80;;;;;;2266401;55;21851;-66
2024/01/22 08:30:58;;;;;;;3.08;1.00;;;13.00;69.90;;;;;;2483111;54;21459;-67
2024/01/22 08:33:29;;;;;;;2.72;1.00;;;13.00;69.50;;;;;;2493571;54;21077;-67
2024/01/22 08:35:58;;;;;;;2.30;0.98;;;13.00;69.70;;;;;;2494240;54;21491;-66
2024/01/22 08:38:24;;;;;;;2.67;0.90;;;13.10;70.00;;;;;;2264749;55;21014;-66
2024/01/22 08:40:51;;;;;;;1.85;0.68;;;13.10;69.90;;;;;;2264250;55;21018;-68
2024/01/22 08:43:17;;;;;;;2.47;0.90;;;13.10;70.00;;;;;;2262734;55;21442;-68
2024/01/22 08:45:43;;;;;;;2.37;0.80;;;13.10;70.10;;;;;;2493908;54;21765;-67
2024/01/22 08:48:12;;;;;;;2.53;1.23;;;13.20;70.30;;;;;;2263754;55;21004;-66
2024/01/22 08:50:39;;;;;;;2.45;0.90;;;13.20;70.10;;;;;;2264823;55;21034;-66
2024/01/22 08:53:06;;;;;;;2.75;1.10;;;13.20;70.00;;;;;;2492762;54;21014;-66
2024/01/22 08:55:34;;;;;;;2.95;1.10;;;13.20;69.60;;;;;;2264577;55;21001;-66
2024/01/22 08:58:01;;;;;;;1.98;0.90;;;13.20;70.00;;;;;;2258207;55;21420;-66
2024/01/22 09:00:27;;;;;;;3.08;1.20;;;13.20;69.80;;;;;;2492872;54;20946;-66
2024/01/22 09:02:53;;;;;;;2.30;0.90;;;13.30;69.90;;;;;;2263553;55;21475;-67
2024/01/22 09:05:22;;;;;;;3.20;1.00;;;13.30;70.00;;;;;;2263755;55;20976;-67
2024/01/22 09:07:48;;;;;;;2.20;0.95;;;13.30;69.80;;;;;;2264575;55;20950;-67
2024/01/22 09:10:15;;;;;;;3.60;0.98;;;13.30;69.60;;;;;;2263997;55;21555;-68
2024/01/22 09:12:41;;;;;;;2.22;1.10;;;13.30;69.80;;;;;;2264929;55;20938;-66
2024/01/22 09:15:07;;;;;;;3.85;0.98;;;13.40;69.90;;;;;;2493695;54;21721;-66
2024/01/22 09:17:35;;;;;;;2.33;0.98;;;13.40;69.90;;;;;;2494476;54;20995;-66
2024/01/22 09:20:02;;;;;;;2.90;0.98;;;13.40;69.90;;;;;;2493392;54;21050;-67
2024/01/22 09:22:30;;;;;;;2.28;0.82;;;13.40;69.90;;;;;;2493426;54;20938;-67
2024/01/22 09:24:56;;;;;;;2.30;1.00;;;13.50;70.00;;;;;;2264493;55;22009;-66
2024/01/22 09:27:30;;;;;;;2.65;0.93;;;13.50;70.10;;;;;;2494205;54;21027;-67
2024/01/22 09:29:56;;;;;;;2.45;1.10;;;13.50;69.80;;;;;;2264725;55;21459;-68
2024/01/22 09:32:25;;;;;;;4.62;0.85;;;13.60;70.30;;;;;;2493209;54;21788;-67
2024/01/22 09:34:51;;;;;;;3.03;1.20;;;13.60;70.40;;;;;;2264637;55;21553;-68
2024/01/22 09:37:18;;;;;;;2.70;1.10;;;13.70;70.10;;;;;;2260961;55;21004;-67
2024/01/22 09:39:44;;;;;;;2.40;1.00;;;13.70;70.10;;;;;;2487723;54;20950;-67
2024/01/22 09:42:12;;;;;;;3.83;1.42;;;13.80;69.90;;;;;;2264088;55;20922;-68
2024/01/22 09:44:43;;;;;;;3.00;1.10;;;13.80;70.40;;;;;;2494549;54;20955;-67
2024/01/22 09:47:09;;;;;;;2.35;1.00;;;13.80;70.40;;;;;;2263457;55;21846;-65
2024/01/22 09:49:36;;;;;;;2.58;1.02;;;13.90;70.30;;;;;;2263942;55;21133;-67
2024/01/22 09:52:04;;;;;;;2.00;0.80;;;14.00;70.60;;;;;;2264779;55;20978;-67
2024/01/22 09:54:31;;;;;;;2.47;0.73;;;14.00;71.00;;;;;;2494327;54;20943;-66
2024/01/22 09:56:58;;;;;;;2.87;1.00;;;14.10;70.70;;;;;;2494349;54;20970;-66
2024/01/22 09:59:26;;;;;;;2.47;0.80;;;14.10;70.30;;;;;;2263891;55;21003;-66
2024/01/22 10:01:55;;;;;;;3.67;1.17;;;14.20;70.40;;;;;;2263869;55;21014;-67
2024/01/22 10:04:23;;;;;;;3.35;1.40;;;14.20;70.70;;;;;;2492518;54;20951;-65
2024/01/22 10:06:50;;;;;;;3.85;1.12;;;14.20;71.00;;;;;;2494117;54;21058;-66
2024/01/22 10:09:17;;;;;;;4.25;1.50;;;14.30;71.00;;;;;;2264056;55;21468;-65
2024/01/22 10:11:45;;;;;;;3.53;1.58;;;14.40;70.90;;;;;;2265240;55;21038;-67
2024/01/22 10:14:11;;;;;;;4.68;1.58;;;14.40;71.20;;;;;;2263060;55;21035;-66
2024/01/22 10:16:38;;;;;;;2.92;1.30;;;14.40;71.00;;;;;;2494329;54;21065;-67
2024/01/22 10:19:07;;;;;;;3.28;1.20;;;14.50;71.20;;;;;;2265071;55;20935;-68
2024/01/22 10:21:34;;;;;;;3.37;1.10;;;14.50;71.30;;;;;;2494612;54;20963;-66
2024/01/22 10:24:08;;;;;;;3.50;1.42;;;14.60;71.60;;;;;;2485989;54;21528;-67
2024/01/22 10:26:34;;;;;;;2.53;1.02;;;14.60;71.40;;;;;;2259952;55;21599;-67
2024/01/22 10:29:16;;;;;;;3.05;1.40;;;14.70;71.40;;;;;;2265016;55;20955;-67
2024/01/22 10:31:58;;;;;;;2.72;1.20;;;14.70;70.40;;;;;;2494931;54;20975;-67
2024/01/22 10:34:25;;;;;;;3.15;1.30;;;14.80;70.50;;;;;;2264381;55;20935;-66
2024/01/22 10:37:07;;;;;;;2.83;1.10;;;14.90;72.00;;;;;;2265009;55;21294;-68
2024/01/22 10:39:35;;;;;;;2.90;0.90;;;14.90;70.50;;;;;;2264946;55;21141;-68
2024/01/22 10:42:09;;;;;;;2.85;0.82;;;15.00;72.00;;;;;;2494289;54;21436;-67
2024/01/22 10:44:38;;;;;;;2.08;0.80;;;15.00;71.30;;;;;;2264584;55;20950;-66
2024/01/22 10:47:05;;;;;;;3.10;0.80;;;15.10;71.70;;;;;;2258480;56;20997;-67
2024/01/22 10:49:32;;;;;;;2.00;0.80;;;15.10;71.40;;;;;;2255293;56;21016;-67
2024/01/22 10:52:01;;;;;;;3.35;0.93;;;15.20;71.80;;;;;;2265797;55;21387;-66
2024/01/22 10:54:29;;;;;;;1.77;0.70;;;15.20;71.30;;;;;;2262618;55;21026;-66
2024/01/22 10:57:20;;;;;;;1.85;0.80;;;15.20;71.30;;;;;;2494621;54;21551;-66
2024/01/22 10:59:50;;;;;;;1.92;0.70;;;15.30;70.70;;;;;;2484578;54;20971;-66
2024/01/22 11:02:23;;;;;;;3.47;0.85;;;15.30;71.10;;;;;;2265191;55;21030;-67
2024/01/22 11:04:58;;;;;;;2.03;0.90;;;15.30;71.30;;;;;;2264663;55;20970;-67
2024/01/22 11:07:30;;;;;;;1.83;0.80;;;15.30;70.60;;;;;;2261232;55;20956;-66
2024/01/22 11:09:58;;;;;;;2.47;0.90;;;15.40;71.40;;;;;;2260208;55;20950;-66
2024/01/22 11:12:26;;;;;;;2.75;0.73;;;15.30;71.20;;;;;;2493131;54;21746;-66
2024/01/22 11:14:52;;;;;;;2.37;0.90;;;15.40;71.50;;;;;;2260090;55;20989;-66
2024/01/22 11:17:19;;;;;;;2.28;0.75;;;15.50;71.60;;;;;;2261663;55;21011;-67
2024/01/22 11:19:46;;;;;;;2.92;1.10;;;15.40;71.40;;;;;;2264610;55;20946;-67
2024/01/22 11:22:23;;;;;;;2.65;0.82;;;15.40;71.10;;;;;;2264113;55;21022;-67
2024/01/22 11:25:10;;;;;;;3.17;0.90;;;15.40;70.70;;;;;;2264623;55;20982;-67
2024/01/22 11:27:40;;;;;;;3.70;0.73;;;15.40;70.00;;;;;;2264797;55;21014;-66
2024/01/22 11:33:43;;;;;;;2.75;0.80;;;15.40;71.40;;;;;;2264719;55;21038;-67
2024/01/22 11:36:10;;;;;;;2.50;0.88;;;15.40;69.10;;;;;;2264343;55;20962;-66
2024/01/22 11:39:09;;;;;;;2.28;0.82;;;15.50;71.50;;;;;;2483161;54;21023;-68
2024/01/22 11:41:40;;;;;;;2.78;1.00;;;15.50;69.10;;;;;;2265025;55;21014;-66
2024/01/22 11:44:06;;;;;;;2.42;0.80;;;15.50;71.30;;;;;;2264371;55;20958;-67
2024/01/22 11:46:32;;;;;;;2.10;0.70;;;15.50;71.50;;;;;;2264203;55;21038;-66
2024/01/22 11:49:07;;;;;;;1.73;0.75;;;15.50;71.70;;;;;;2494026;54;21034;-67
2024/01/22 11:51:34;;;;;;;2.03;0.77;;;15.50;71.10;;;;;;2494028;54;20982;-66
2024/01/22 11:54:00;;;;;;;2.15;0.88;;;15.50;71.50;;;;;;2264982;55;21451;-66
2024/01/22 11:56:27;;;;;;;2.15;0.88;;;15.50;71.70;;;;;;2493304;54;20956;-67
2024/01/22 11:59:02;;;;;;;1.98;0.80;;;15.50;71.50;;;;;;2493701;54;21105;-67
2024/01/22 12:01:29;;;;;;;2.35;0.80;;;15.50;70.70;;;;;;2263899;55;20966;-67
2024/01/22 12:03:55;;;;;;;2.10;0.90;;;15.50;71.50;;;;;;2264372;55;20962;-67
2024/01/22 12:06:27;;;;;;;1.87;0.70;;;15.50;71.70;;;;;;2264160;55;21018;-66
2024/01/22 12:08:59;;;;;;;2.22;0.70;;;15.50;71.60;;;;;;2493813;54;20974;-66
2024/01/22 12:11:25;;;;;;;1.30;0.60;;;15.40;71.30;;;;;;2263552;55;20959;-68
2024/01/22 12:13:52;;;;;;;1.95;0.70;;;15.40;71.50;;;;;;2264486;55;20982;-67
2024/01/22 12:16:18;;;;;;;2.10;0.75;;;15.40;71.40;;;;;;2263610;55;21034;-67
2024/01/22 12:18:45;;;;;;;1.92;0.73;;;15.40;71.40;;;;;;2264392;55;20996;-68
2024/01/22 12:21:12;;;;;;;1.45;0.60;;;15.40;71.40;;;;;;2255964;56;20948;-66
2024/01/22 12:23:39;;;;;;;3.10;0.60;;;15.40;71.60;;;;;;2263395;55;21026;-66
2024/01/22 12:26:40;;;;;;;1.95;0.70;;;15.40;71.70;;;;;;2264472;55;20962;-68
2024/01/22 12:29:22;;;;;;;1.37;0.50;;;15.40;70.20;;;;;;2493358;54;20970;-68
2024/01/22 12:31:51;;;;;;;3.35;1.08;;;15.30;70.60;;;;;;2262841;55;21028;-71
2024/01/22 12:34:18;;;;;;;5.30;2.10;;;15.30;71.50;;;;;;2485937;54;21554;-66
2024/01/22 12:36:45;;;;;;;4.20;1.33;;;15.30;71.30;;;;;;2264581;55;21097;-66
2024/01/22 12:39:19;;;;;;;2.55;0.95;;;15.20;71.40;;;;;;2264251;55;20942;-67
2024/01/22 12:41:46;;;;;;;2.45;1.08;;;15.20;71.00;;;;;;2493413;54;20954;-67
2024/01/22 12:44:15;;;;;;;2.03;0.80;;;15.20;71.50;;;;;;2260970;55;20937;-67
2024/01/22 12:46:41;;;;;;;1.50;0.70;;;15.10;71.20;;;;;;2260324;55;20942;-66
2024/01/22 12:49:07;;;;;;;1.77;0.62;;;15.10;71.40;;;;;;2486395;54;21425;-66
2024/01/22 12:51:34;;;;;;;1.87;0.70;;;15.10;71.60;;;;;;2254128;56;21068;-67
2024/01/22 12:54:00;;;;;;;1.67;0.68;;;15.00;71.60;;;;;;2492138;54;21037;-67
2024/01/22 12:56:26;;;;;;;2.60;0.70;;;15.00;71.80;;;;;;2483845;54;20991;-68